sensor_id;sensor_type;location;lat;lon;timestamp;pressure;altitude;pressure_sealevel;temperature;humidity
68456;BME280;55437;55.046;38.838;2023-03-15T00:02:51;99726.59;;;4.74;55.43
68456;BME280;55437;55.046;38.838;2023-03-15T00:05:17;99731.69;;;4.74;55.32
68456;BME280;55437;55.046;38.838;2023-03-15T00:07:43;99728.28;;;4.75;55.29
68456;BME280;55437;55.046;38.838;2023-03-15T00:10:09;99737.69;;;4.70;55.68
68456;BME280;55437;55.046;38.838;2023-03-15T00:12:35;99726.63;;;4.71;55.47
68456;BME280;55437;55.046;38.838;2023-03-15T00:15:02;99735.94;;;4.72;55.42
68456;BME280;55437;55.046;38.838;2023-03-15T00:17:29;99733.44;;;4.69;56.05
68456;BME280;55437;55.046;38.838;2023-03-15T00:20:00;99732.53;;;4.73;55.53
68456;BME280;55437;55.046;38.838;2023-03-15T00:22:27;99736.75;;;4.77;55.52
68456;BME280;55437;55.046;38.838;2023-03-15T00:24:52;99740.09;;;4.82;55.44
68456;BME280;55437;55.046;38.838;2023-03-15T00:27:18;99737.50;;;4.84;55.27
68456;BME280;55437;55.046;38.838;2023-03-15T00:29:44;99736.69;;;4.83;55.53
68456;BME280;55437;55.046;38.838;2023-03-15T00:32:10;99728.22;;;4.83;55.68
68456;BME280;55437;55.046;38.838;2023-03-15T00:34:38;99732.44;;;4.84;55.35
68456;BME280;55437;55.046;38.838;2023-03-15T00:37:04;99729.88;;;4.85;55.30
68456;BME280;55437;55.046;38.838;2023-03-15T00:39:29;99737.47;;;4.88;55.30
68456;BME280;55437;55.046;38.838;2023-03-15T00:41:55;99735.03;;;4.79;55.51
68456;BME280;55437;55.046;38.838;2023-03-15T00:44:24;99743.63;;;4.70;56.04
68456;BME280;55437;55.046;38.838;2023-03-15T00:46:50;99726.59;;;4.76;55.62
68456;BME280;55437;55.046;38.838;2023-03-15T00:49:16;99729.16;;;4.74;55.62
68456;BME280;55437;55.046;38.838;2023-03-15T00:51:42;99730.84;;;4.74;55.66
68456;BME280;55437;55.046;38.838;2023-03-15T00:54:10;99732.53;;;4.73;55.64
68456;BME280;55437;55.046;38.838;2023-03-15T00:56:38;99730.91;;;4.70;55.54
68456;BME280;55437;55.046;38.838;2023-03-15T00:59:04;99737.63;;;4.71;55.57
68456;BME280;55437;55.046;38.838;2023-03-15T01:01:30;99747.03;;;4.66;55.86
68456;BME280;55437;55.046;38.838;2023-03-15T01:03:56;99740.25;;;4.68;55.70
68456;BME280;55437;55.046;38.838;2023-03-15T01:06:26;99738.53;;;4.69;55.79
68456;BME280;55437;55.046;38.838;2023-03-15T01:08:53;99735.09;;;4.71;55.55
68456;BME280;55437;55.046;38.838;2023-03-15T01:11:23;99743.56;;;4.72;55.56
68456;BME280;55437;55.046;38.838;2023-03-15T01:13:51;99730.84;;;4.75;55.58
68456;BME280;55437;55.046;38.838;2023-03-15T01:16:17;99741.00;;;4.75;55.46
68456;BME280;55437;55.046;38.838;2023-03-15T01:18:43;99736.75;;;4.77;55.54
68456;BME280;55437;55.046;38.838;2023-03-15T01:21:12;99727.41;;;4.78;55.37
68456;BME280;55437;55.046;38.838;2023-03-15T01:23:40;99729.97;;;4.78;55.48
68456;BME280;55437;55.046;38.838;2023-03-15T01:26:08;99741.00;;;4.75;55.58
68456;BME280;55437;55.046;38.838;2023-03-15T01:28:37;99740.22;;;4.70;55.59
68456;BME280;55437;55.046;38.838;2023-03-15T01:31:04;99730.91;;;4.67;55.49
68456;BME280;55437;55.046;38.838;2023-03-15T01:33:30;99731.78;;;4.65;55.92
68456;BME280;55437;55.046;38.838;2023-03-15T01:36:06;99732.59;;;4.70;55.71
68456;BME280;55437;55.046;38.838;2023-03-15T01:38:34;99733.41;;;4.72;55.99
68456;BME280;55437;55.046;38.838;2023-03-15T01:41:00;99724.16;;;4.66;55.71
68456;BME280;55437;55.046;38.838;2023-03-15T01:43:28;99731.69;;;4.74;55.73
68456;BME280;55437;55.046;38.838;2023-03-15T01:46:19;99723.22;;;4.74;55.48
68456;BME280;55437;55.046;38.838;2023-03-15T01:51:42;99729.22;;;4.69;55.82
68456;BME280;55437;55.046;38.838;2023-03-15T01:54:16;99719.91;;;4.67;55.68
68456;BME280;55437;55.046;38.838;2023-03-15T01:56:48;99725.88;;;4.60;56.03
68456;BME280;55437;55.046;38.838;2023-03-15T01:59:21;99731.81;;;4.63;55.82
68456;BME280;55437;55.046;38.838;2023-03-15T02:01:50;99719.94;;;4.61;55.95
68456;BME280;55437;55.046;38.838;2023-03-15T02:04:33;99725.94;;;4.55;56.16
68456;BME280;55437;55.046;38.838;2023-03-15T02:07:01;99722.59;;;4.49;56.40
68456;BME280;55437;55.046;38.838;2023-03-15T02:12:27;99739.63;;;4.44;56.52
68456;BME280;55437;55.046;38.838;2023-03-15T02:14:55;99725.22;;;4.43;56.52
68456;BME280;55437;55.046;38.838;2023-03-15T02:17:29;99725.25;;;4.40;56.76
68456;BME280;55437;55.046;38.838;2023-03-15T02:20:16;99732.88;;;4.38;56.69
68456;BME280;55437;55.046;38.838;2023-03-15T02:23:05;99718.53;;;4.32;56.81
68456;BME280;55437;55.046;38.838;2023-03-15T02:28:36;99727.75;;;4.46;56.68
68456;BME280;55437;55.046;38.838;2023-03-15T02:31:02;99732.84;;;4.44;56.77
68456;BME280;55437;55.046;38.838;2023-03-15T02:33:36;99736.22;;;4.45;56.73
68456;BME280;55437;55.046;38.838;2023-03-15T02:36:18;99732.78;;;4.49;56.92
68456;BME280;55437;55.046;38.838;2023-03-15T02:38:47;99739.56;;;4.48;56.86
68456;BME280;55437;55.046;38.838;2023-03-15T02:41:17;99735.31;;;4.47;56.81
68456;BME280;55437;55.046;38.838;2023-03-15T02:43:45;99743.03;;;4.41;56.92
68456;BME280;55437;55.046;38.838;2023-03-15T02:46:13;99728.63;;;4.42;57.26
68456;BME280;55437;55.046;38.838;2023-03-15T02:48:41;99741.34;;;4.39;57.40
68456;BME280;55437;55.046;38.838;2023-03-15T02:51:16;99730.31;;;4.40;57.22
68456;BME280;55437;55.046;38.838;2023-03-15T02:53:44;99737.94;;;4.44;57.00
68456;BME280;55437;55.046;38.838;2023-03-15T02:56:10;99735.41;;;4.41;57.09
68456;BME280;55437;55.046;38.838;2023-03-15T02:58:36;99741.34;;;4.40;57.47
68456;BME280;55437;55.046;38.838;2023-03-15T03:01:02;99724.41;;;4.36;57.48
68456;BME280;55437;55.046;38.838;2023-03-15T03:03:28;99713.38;;;4.39;57.43
68456;BME280;55437;55.046;38.838;2023-03-15T03:05:53;99718.53;;;4.31;57.53
68456;BME280;55437;55.046;38.838;2023-03-15T03:08:19;99725.28;;;4.35;57.58
68456;BME280;55437;55.046;38.838;2023-03-15T03:10:45;99715.94;;;4.37;57.66
68456;BME280;55437;55.046;38.838;2023-03-15T03:13:11;99721.88;;;4.38;57.42
68456;BME280;55437;55.046;38.838;2023-03-15T03:15:38;99721.94;;;4.31;57.84
68456;BME280;55437;55.046;38.838;2023-03-15T03:18:04;99736.34;;;4.31;57.79
68456;BME280;55437;55.046;38.838;2023-03-15T03:20:29;99732.09;;;4.33;57.76
68456;BME280;55437;55.046;38.838;2023-03-15T03:22:55;99728.72;;;4.31;58.03
68456;BME280;55437;55.046;38.838;2023-03-15T03:25:21;99732.03;;;4.36;57.61
68456;BME280;55437;55.046;38.838;2023-03-15T03:28:10;99728.63;;;4.40;57.49
68456;BME280;55437;55.046;38.838;2023-03-15T03:30:36;99731.16;;;4.40;57.64
68456;BME280;55437;55.046;38.838;2023-03-15T03:33:21;99733.75;;;4.35;57.63
68456;BME280;55437;55.046;38.838;2023-03-15T03:35:48;99731.25;;;4.34;58.06
68456;BME280;55437;55.046;38.838;2023-03-15T03:38:15;99743.09;;;4.33;58.18
68456;BME280;55437;55.046;38.838;2023-03-15T03:40:45;99741.41;;;4.32;58.39
68456;BME280;55437;55.046;38.838;2023-03-15T03:43:13;99744.72;;;4.41;58.17
68456;BME280;55437;55.046;38.838;2023-03-15T03:45:39;99733.72;;;4.39;57.96
68456;BME280;55437;55.046;38.838;2023-03-15T03:48:07;99728.59;;;4.46;58.05
68456;BME280;55437;55.046;38.838;2023-03-15T03:50:33;99730.31;;;4.43;58.21
68456;BME280;55437;55.046;38.838;2023-03-15T03:53:00;99740.47;;;4.44;58.15
68456;BME280;55437;55.046;38.838;2023-03-15T03:55:30;99733.69;;;4.43;58.06
68456;BME280;55437;55.046;38.838;2023-03-15T03:57:59;99735.38;;;4.46;58.48
68456;BME280;55437;55.046;38.838;2023-03-15T04:00:54;99743.78;;;4.52;58.17
68456;BME280;55437;55.046;38.838;2023-03-15T04:03:22;99742.09;;;4.51;58.23
68456;BME280;55437;55.046;38.838;2023-03-15T04:06:18;99742.88;;;4.58;58.29
68456;BME280;55437;55.046;38.838;2023-03-15T04:08:46;99741.00;;;4.75;57.84
68456;BME280;55437;55.046;38.838;2023-03-15T04:11:20;99739.06;;;5.00;57.37
68456;BME280;55437;55.046;38.838;2023-03-15T04:13:54;99749.06;;;5.15;56.77
68456;BME280;55437;55.046;38.838;2023-03-15T04:16:20;99753.06;;;5.34;56.52
68456;BME280;55437;55.046;38.838;2023-03-15T04:18:59;99760.50;;;5.53;55.97
68456;BME280;55437;55.046;38.838;2023-03-15T04:21:28;99752.38;;;5.89;55.58
68456;BME280;55437;55.046;38.838;2023-03-15T04:24:10;99763.72;;;6.27;54.71
68456;BME280;55437;55.046;38.838;2023-03-15T04:26:54;99761.25;;;6.71;54.03
68456;BME280;55437;55.046;38.838;2023-03-15T04:29:41;99760.41;;;6.71;53.46
68456;BME280;55437;55.046;38.838;2023-03-15T04:32:37;99744.91;;;6.81;53.14
68456;BME280;55437;55.046;38.838;2023-03-15T04:35:32;99753.22;;;6.91;52.59
68456;BME280;55437;55.046;38.838;2023-03-15T04:38:11;99766.13;;;6.85;52.42
68456;BME280;55437;55.046;38.838;2023-03-15T04:40:59;99776.81;;;7.04;52.24
68456;BME280;55437;55.046;38.838;2023-03-15T04:43:41;99770.44;;;6.81;52.40
68456;BME280;55437;55.046;38.838;2023-03-15T04:46:27;99772.22;;;6.76;52.92
68456;BME280;55437;55.046;38.838;2023-03-15T04:49:04;99768.28;;;7.06;52.22
68456;BME280;55437;55.046;38.838;2023-03-15T04:51:48;99772.63;;;7.46;51.46
68456;BME280;55437;55.046;38.838;2023-03-15T04:54:32;99770.38;;;7.71;50.85
68456;BME280;55437;55.046;38.838;2023-03-15T04:57:21;99783.81;;;8.19;50.16
68456;BME280;55437;55.046;38.838;2023-03-15T04:59:47;99779.00;;;8.42;49.44
68456;BME280;55437;55.046;38.838;2023-03-15T05:02:33;99786.69;;;8.42;49.41
68456;BME280;55437;55.046;38.838;2023-03-15T05:05:11;99776.13;;;8.19;49.22
68456;BME280;55437;55.046;38.838;2023-03-15T05:07:51;99789.63;;;7.85;50.10
68456;BME280;55437;55.046;38.838;2023-03-15T05:10:30;99793.91;;;7.45;50.84
68456;BME280;55437;55.046;38.838;2023-03-15T05:13:03;99805.91;;;7.41;50.55
68456;BME280;55437;55.046;38.838;2023-03-15T05:15:59;99805.44;;;7.64;50.54
68456;BME280;55437;55.046;38.838;2023-03-15T05:18:47;99808.00;;;7.63;50.74
68456;BME280;55437;55.046;38.838;2023-03-15T05:21:34;99825.44;;;7.85;50.07
68456;BME280;55437;55.046;38.838;2023-03-15T05:24:20;99814.44;;;7.82;50.25
68456;BME280;55437;55.046;38.838;2023-03-15T05:26:52;99813.06;;;8.06;49.80
68456;BME280;55437;55.046;38.838;2023-03-15T05:29:55;99818.25;;;8.41;49.25
68456;BME280;55437;55.046;38.838;2023-03-15T05:32:55;99819.78;;;8.48;48.99
68456;BME280;55437;55.046;38.838;2023-03-15T05:35:42;99810.91;;;8.26;49.26
68456;BME280;55437;55.046;38.838;2023-03-15T05:38:12;99828.31;;;8.10;49.21
68456;BME280;55437;55.046;38.838;2023-03-15T05:40:53;99824.66;;;7.82;49.99
68456;BME280;55437;55.046;38.838;2023-03-15T05:43:37;99831.78;;;7.68;50.16
68456;BME280;55437;55.046;38.838;2023-03-15T05:46:23;99823.06;;;8.16;49.67
68456;BME280;55437;55.046;38.838;2023-03-15T05:49:07;99826.34;;;8.58;48.60
68456;BME280;55437;55.046;38.838;2023-03-15T05:51:59;99815.28;;;8.58;48.81
68456;BME280;55437;55.046;38.838;2023-03-15T05:54:45;99841.56;;;9.00;48.04
68456;BME280;55437;55.046;38.838;2023-03-15T05:57:20;99835.84;;;10.13;46.53
68456;BME280;55437;55.046;38.838;2023-03-15T06:00:09;99836.03;;;10.36;45.69
68456;BME280;55437;55.046;38.838;2023-03-15T06:02:42;99843.00;;;10.31;45.77
68456;BME280;55437;55.046;38.838;2023-03-15T06:05:37;99841.56;;;9.93;46.14
68456;BME280;55437;55.046;38.838;2023-03-15T06:08:10;99843.44;;;9.57;46.30
68456;BME280;55437;55.046;38.838;2023-03-15T06:10:40;99846.25;;;9.48;46.66
68456;BME280;55437;55.046;38.838;2023-03-15T06:13:09;99840.22;;;9.50;46.61
68456;BME280;55437;55.046;38.838;2023-03-15T06:15:35;99843.91;;;9.71;46.18
68456;BME280;55437;55.046;38.838;2023-03-15T06:18:01;99846.47;;;9.71;46.05
68456;BME280;55437;55.046;38.838;2023-03-15T06:20:45;99853.16;;;9.77;46.30
68456;BME280;55437;55.046;38.838;2023-03-15T06:23:13;99855.88;;;9.70;46.11
68456;BME280;55437;55.046;38.838;2023-03-15T06:25:44;99862.78;;;9.68;46.12
68456;BME280;55437;55.046;38.838;2023-03-15T06:28:10;99861.94;;;9.68;46.39
68456;BME280;55437;55.046;38.838;2023-03-15T06:30:41;99861.59;;;9.80;46.46
68456;BME280;55437;55.046;38.838;2023-03-15T06:33:07;99865.28;;;10.01;45.58
68456;BME280;55437;55.046;38.838;2023-03-15T06:35:34;99863.06;;;10.18;45.38
68456;BME280;55437;55.046;38.838;2023-03-15T06:38:00;99869.31;;;10.08;45.42
68456;BME280;55437;55.046;38.838;2023-03-15T06:40:26;99865.47;;;10.51;44.88
68456;BME280;55437;55.046;38.838;2023-03-15T06:43:12;99872.84;;;10.88;44.05
68456;BME280;55437;55.046;38.838;2023-03-15T06:45:45;99875.63;;;11.33;43.57
68456;BME280;55437;55.046;38.838;2023-03-15T06:48:12;99881.00;;;12.21;42.03
68456;BME280;55437;55.046;38.838;2023-03-15T06:50:39;99880.47;;;13.41;40.71
68456;BME280;55437;55.046;38.838;2023-03-15T06:53:24;99875.06;;;14.24;39.42
68456;BME280;55437;55.046;38.838;2023-03-15T06:55:49;99880.03;;;14.47;38.60
68456;BME280;55437;55.046;38.838;2023-03-15T06:58:16;99882.72;;;14.80;37.88
68456;BME280;55437;55.046;38.838;2023-03-15T07:00:42;99893.97;;;14.79;37.56
68456;BME280;55437;55.046;38.838;2023-03-15T07:03:09;99901.22;;;14.16;37.79
68456;BME280;55437;55.046;38.838;2023-03-15T07:05:35;99897.56;;;13.83;38.30
68456;BME280;55437;55.046;38.838;2023-03-15T07:08:02;99903.66;;;13.41;38.39
68456;BME280;55437;55.046;38.838;2023-03-15T07:10:28;99903.25;;;13.52;38.54
68456;BME280;55437;55.046;38.838;2023-03-15T07:12:54;99899.19;;;13.65;38.36
68456;BME280;55437;55.046;38.838;2023-03-15T07:15:19;99901.38;;;13.35;38.46
68456;BME280;55437;55.046;38.838;2023-03-15T07:17:45;99902.13;;;13.96;37.65
68456;BME280;55437;55.046;38.838;2023-03-15T07:20:11;99913.25;;;15.25;36.16
68456;BME280;55437;55.046;38.838;2023-03-15T07:22:37;99903.69;;;15.77;35.08
68456;BME280;55437;55.046;38.838;2023-03-15T07:25:03;99908.69;;;16.45;34.30
68456;BME280;55437;55.046;38.838;2023-03-15T07:27:32;99926.03;;;16.76;33.54
68456;BME280;55437;55.046;38.838;2023-03-15T07:29:57;99927.47;;;16.66;33.37
68456;BME280;55437;55.046;38.838;2023-03-15T07:32:23;99929.31;;;16.31;33.50
68456;BME280;55437;55.046;38.838;2023-03-15T07:34:52;99931.00;;;16.16;33.76
68456;BME280;55437;55.046;38.838;2023-03-15T07:37:19;99929.91;;;16.04;33.91
68456;BME280;55437;55.046;38.838;2023-03-15T07:39:48;99923.81;;;15.72;33.87
68456;BME280;55437;55.046;38.838;2023-03-15T07:42:13;99929.69;;;15.59;34.38
68456;BME280;55437;55.046;38.838;2023-03-15T07:44:41;99923.63;;;14.89;34.86
68456;BME280;55437;55.046;38.838;2023-03-15T07:47:07;99928.34;;;14.45;35.65
68456;BME280;55437;55.046;38.838;2023-03-15T07:49:33;99911.25;;;13.64;36.48
68456;BME280;55437;55.046;38.838;2023-03-15T07:51:59;99922.91;;;13.34;37.16
68456;BME280;55437;55.046;38.838;2023-03-15T07:54:24;99909.56;;;13.03;37.63
68456;BME280;55437;55.046;38.838;2023-03-15T07:56:53;99913.78;;;12.83;38.09
68456;BME280;55437;55.046;38.838;2023-03-15T07:59:19;99916.47;;;12.80;38.20
68456;BME280;55437;55.046;38.838;2023-03-15T08:01:45;99910.34;;;13.26;37.48
68456;BME280;55437;55.046;38.838;2023-03-15T08:04:11;99917.25;;;14.04;36.66
68456;BME280;55437;55.046;38.838;2023-03-15T08:06:40;99921.44;;;14.63;35.99
68456;BME280;55437;55.046;38.838;2023-03-15T08:09:08;99917.69;;;14.70;35.24
68456;BME280;55437;55.046;38.838;2023-03-15T08:11:34;99910.84;;;14.86;35.26
68456;BME280;55437;55.046;38.838;2023-03-15T08:14:00;99923.41;;;14.20;35.76
68456;BME280;55437;55.046;38.838;2023-03-15T08:16:26;99921.28;;;13.31;36.85
68456;BME280;55437;55.046;38.838;2023-03-15T08:18:52;99928.34;;;12.84;37.59
68456;BME280;55437;55.046;38.838;2023-03-15T08:21:17;99932.03;;;12.79;38.06
68456;BME280;55437;55.046;38.838;2023-03-15T08:23:43;99934.94;;;12.48;38.51
68456;BME280;55437;55.046;38.838;2023-03-15T08:26:09;99938.81;;;12.13;39.10
68456;BME280;55437;55.046;38.838;2023-03-15T08:28:35;99947.09;;;11.48;39.92
68456;BME280;55437;55.046;38.838;2023-03-15T08:31:05;99926.19;;;11.07;40.76
68456;BME280;55437;55.046;38.838;2023-03-15T08:33:32;99926.03;;;10.58;41.65
68456;BME280;55437;55.046;38.838;2023-03-15T08:35:58;99936.84;;;10.39;42.07
68456;BME280;55437;55.046;38.838;2023-03-15T08:38:24;99929.56;;;10.26;42.18
68456;BME280;55437;55.046;38.838;2023-03-15T08:40:56;99920.19;;;9.94;43.03
68456;BME280;55437;55.046;38.838;2023-03-15T08:43:40;99932.19;;;9.61;43.86
68456;BME280;55437;55.046;38.838;2023-03-15T08:46:06;99927.44;;;9.47;44.08
68456;BME280;55437;55.046;38.838;2023-03-15T08:48:32;99918.38;;;9.34;44.48
68456;BME280;55437;55.046;38.838;2023-03-15T08:51:03;99925.50;;;9.23;44.99
68456;BME280;55437;55.046;38.838;2023-03-15T08:53:29;99930.97;;;9.09;45.21
68456;BME280;55437;55.046;38.838;2023-03-15T08:55:56;99932.41;;;9.19;44.94
68456;BME280;55437;55.046;38.838;2023-03-15T08:58:22;99918.56;;;9.28;44.99
68456;BME280;55437;55.046;38.838;2023-03-15T09:00:49;99932.06;;;8.99;45.55
68456;BME280;55437;55.046;38.838;2023-03-15T09:03:17;99932.22;;;8.93;45.57
68456;BME280;55437;55.046;38.838;2023-03-15T09:05:45;99931.28;;;8.95;45.80
68456;BME280;55437;55.046;38.838;2023-03-15T09:08:10;99925.91;;;9.06;45.49
68456;BME280;55437;55.046;38.838;2023-03-15T09:10:39;99936.41;;;8.95;46.04
68456;BME280;55437;55.046;38.838;2023-03-15T09:13:05;99939.66;;;8.66;46.68
68456;BME280;55437;55.046;38.838;2023-03-15T09:15:31;99928.28;;;8.41;46.69
68456;BME280;55437;55.046;38.838;2023-03-15T09:17:57;99942.13;;;8.31;47.17
68456;BME280;55437;55.046;38.838;2023-03-15T09:20:23;99921.06;;;8.18;47.37
68456;BME280;55437;55.046;38.838;2023-03-15T09:22:57;99919.34;;;8.19;47.26
68456;BME280;55437;55.046;38.838;2023-03-15T09:25:24;99907.28;;;8.24;47.41
68456;BME280;55437;55.046;38.838;2023-03-15T09:27:50;99911.44;;;8.29;47.40
68456;BME280;55437;55.046;38.838;2023-03-15T09:30:17;99904.28;;;8.45;47.18
68456;BME280;55437;55.046;38.838;2023-03-15T09:32:43;99913.72;;;8.45;47.20
68456;BME280;55437;55.046;38.838;2023-03-15T09:35:18;99903.41;;;8.46;47.16
68456;BME280;55437;55.046;38.838;2023-03-15T09:37:45;99906.69;;;8.53;46.95
68456;BME280;55437;55.046;38.838;2023-03-15T09:40:32;99903.97;;;8.59;47.23
68456;BME280;55437;55.046;38.838;2023-03-15T09:48:18;99902.25;;;8.59;46.71
68456;BME280;55437;55.046;38.838;2023-03-15T09:50:53;99911.13;;;8.82;46.30
68456;BME280;55437;55.046;38.838;2023-03-15T09:56:37;99898.94;;;8.93;46.26
68456;BME280;55437;55.046;38.838;2023-03-15T09:59:05;99893.72;;;8.96;46.07
68456;BME280;55437;55.046;38.838;2023-03-15T10:01:38;99897.03;;;9.01;45.88
68456;BME280;55437;55.046;38.838;2023-03-15T10:06:53;99894.00;;;8.84;46.19
68456;BME280;55437;55.046;38.838;2023-03-15T10:09:25;99907.50;;;8.92;45.97
68456;BME280;55437;55.046;38.838;2023-03-15T10:14:56;99891.38;;;8.87;46.17
68456;BME280;55437;55.046;38.838;2023-03-15T10:20:28;99893.63;;;8.65;46.06
68456;BME280;55437;55.046;38.838;2023-03-15T10:23:20;99908.44;;;8.51;46.51
68456;BME280;55437;55.046;38.838;2023-03-15T10:25:49;99891.22;;;8.57;46.57
68456;BME280;55437;55.046;38.838;2023-03-15T10:28:28;99897.88;;;8.66;46.49
68456;BME280;55437;55.046;38.838;2023-03-15T10:31:10;99896.50;;;8.87;46.19
68456;BME280;55437;55.046;38.838;2023-03-15T10:33:37;99897.38;;;8.86;46.13
68456;BME280;55437;55.046;38.838;2023-03-15T10:36:18;99894.34;;;8.70;46.30
68456;BME280;55437;55.046;38.838;2023-03-15T10:38:45;99902.06;;;8.69;46.41
68456;BME280;55437;55.046;38.838;2023-03-15T10:41:35;99903.00;;;8.64;46.45
68456;BME280;55437;55.046;38.838;2023-03-15T10:44:05;99893.03;;;8.54;46.54
68456;BME280;55437;55.046;38.838;2023-03-15T10:46:31;99902.47;;;8.50;46.58
68456;BME280;55437;55.046;38.838;2023-03-15T10:48:59;99911.44;;;8.29;47.19
68456;BME280;55437;55.046;38.838;2023-03-15T10:51:37;99901.56;;;8.13;47.66
68456;BME280;55437;55.046;38.838;2023-03-15T10:54:18;99914.47;;;8.08;47.51
68456;BME280;55437;55.046;38.838;2023-03-15T10:57:05;99908.06;;;7.86;48.09
68456;BME280;55437;55.046;38.838;2023-03-15T10:59:53;99900.47;;;7.84;48.23
68456;BME280;55437;55.046;38.838;2023-03-15T11:02:21;99908.13;;;7.84;48.30
68456;BME280;55437;55.046;38.838;2023-03-15T11:04:59;99899.63;;;7.82;48.51
68456;BME280;55437;55.046;38.838;2023-03-15T11:07:26;99894.44;;;7.85;48.49
68456;BME280;55437;55.046;38.838;2023-03-15T11:10:04;99902.97;;;7.86;48.33
68456;BME280;55437;55.046;38.838;2023-03-15T11:12:32;99905.50;;;7.87;48.26
68456;BME280;55437;55.046;38.838;2023-03-15T11:15:10;99911.34;;;7.94;48.44
68456;BME280;55437;55.046;38.838;2023-03-15T11:17:47;99903.66;;;7.94;48.15
68456;BME280;55437;55.046;38.838;2023-03-15T11:20:28;99904.66;;;7.85;48.34
68456;BME280;55437;55.046;38.838;2023-03-15T11:22:59;99902.19;;;7.82;48.73
68456;BME280;55437;55.046;38.838;2023-03-15T11:25:30;99901.09;;;7.95;48.69
68456;BME280;55437;55.046;38.838;2023-03-15T11:27:59;99901.88;;;7.97;48.40
68456;BME280;55437;55.046;38.838;2023-03-15T11:30:28;99899.97;;;8.09;48.22
68456;BME280;55437;55.046;38.838;2023-03-15T11:32:55;99905.00;;;8.12;48.19
68456;BME280;55437;55.046;38.838;2023-03-15T11:35:31;99905.78;;;8.15;48.52
68456;BME280;55437;55.046;38.838;2023-03-15T11:38:26;99901.78;;;8.02;48.29
68456;BME280;55437;55.046;38.838;2023-03-15T11:40:58;99903.59;;;7.97;48.44
68456;BME280;55437;55.046;38.838;2023-03-15T11:46:45;99901.81;;;8.01;48.25
68456;BME280;55437;55.046;38.838;2023-03-15T11:51:42;99898.78;;;7.83;48.86
68456;BME280;55437;55.046;38.838;2023-03-15T11:54:17;99898.97;;;7.73;48.99
68456;BME280;55437;55.046;38.838;2023-03-15T11:57:04;99900.72;;;7.71;48.85
68456;BME280;55437;55.046;38.838;2023-03-15T11:59:38;99899.06;;;7.68;48.48
68456;BME280;55437;55.046;38.838;2023-03-15T12:04:54;99909.63;;;7.50;48.63
68456;BME280;55437;55.046;38.838;2023-03-15T12:09:55;99899.25;;;7.59;48.69
68456;BME280;55437;55.046;38.838;2023-03-15T12:15:47;99891.81;;;7.90;48.32
68456;BME280;55437;55.046;38.838;2023-03-15T12:17:54;99900.06;;;8.03;48.22
68456;BME280;55437;55.046;38.838;2023-03-15T12:20:31;99895.25;;;7.87;48.15
68456;BME280;55437;55.046;38.838;2023-03-15T12:25:37;99886.13;;;7.76;48.29
68456;BME280;55437;55.046;38.838;2023-03-15T12:31:07;99887.50;;;7.49;48.54
68456;BME280;55437;55.046;38.838;2023-03-15T12:33:48;99884.91;;;7.50;48.13
68456;BME280;55437;55.046;38.838;2023-03-15T12:36:23;99882.00;;;7.69;48.08
68456;BME280;55437;55.046;38.838;2023-03-15T12:41:46;99893.28;;;7.60;48.11
68456;BME280;55437;55.046;38.838;2023-03-15T12:47:04;99889.78;;;7.63;47.85
68456;BME280;55437;55.046;38.838;2023-03-15T12:49:34;99880.63;;;7.52;48.03
68456;BME280;55437;55.046;38.838;2023-03-15T12:54:42;99872.06;;;7.55;47.75
68456;BME280;55437;55.046;38.838;2023-03-15T12:57:14;99889.91;;;7.58;47.91
68456;BME280;55437;55.046;38.838;2023-03-15T12:59:54;99886.84;;;7.38;47.65
68456;BME280;55437;55.046;38.838;2023-03-15T13:02:49;99877.63;;;7.31;48.07
68456;BME280;55437;55.046;38.838;2023-03-15T13:05:26;99881.16;;;7.23;48.18
68456;BME280;55437;55.046;38.838;2023-03-15T13:18:43;99878.56;;;7.25;47.97
68456;BME280;55437;55.046;38.838;2023-03-15T13:21:19;99876.00;;;7.25;48.45
68456;BME280;55437;55.046;38.838;2023-03-15T13:23:51;99880.16;;;7.32;48.18
68456;BME280;55437;55.046;38.838;2023-03-15T13:29:17;99886.97;;;7.32;48.08
68456;BME280;55437;55.046;38.838;2023-03-15T13:31:46;99884.28;;;7.38;48.19
68456;BME280;55437;55.046;38.838;2023-03-15T13:34:24;99885.91;;;7.43;48.20
68456;BME280;55437;55.046;38.838;2023-03-15T13:36:57;99893.75;;;7.34;48.32
68456;BME280;55437;55.046;38.838;2023-03-15T13:39:33;99891.38;;;7.23;48.19
68456;BME280;55437;55.046;38.838;2023-03-15T13:44:27;99893.34;;;7.08;48.56
68456;BME280;55437;55.046;38.838;2023-03-15T13:46:54;99894.19;;;7.08;48.30
68456;BME280;55437;55.046;38.838;2023-03-15T13:49:20;99890.03;;;7.01;48.76
68456;BME280;55437;55.046;38.838;2023-03-15T13:51:47;99902.09;;;6.93;48.86
68456;BME280;55437;55.046;38.838;2023-03-15T13:54:23;99885.09;;;6.92;48.78
68456;BME280;55437;55.046;38.838;2023-03-15T13:57:11;99889.31;;;6.95;49.32
68456;BME280;55437;55.046;38.838;2023-03-15T13:59:40;99879.06;;;6.98;49.28
68456;BME280;55437;55.046;38.838;2023-03-15T14:02:21;99882.34;;;7.03;48.93
68456;BME280;55437;55.046;38.838;2023-03-15T14:04:58;99875.44;;;7.09;49.13
68456;BME280;55437;55.046;38.838;2023-03-15T14:07:42;99878.06;;;7.06;49.17
68456;BME280;55437;55.046;38.838;2023-03-15T14:10:27;99878.91;;;7.05;49.18
68456;BME280;55437;55.046;38.838;2023-03-15T14:12:54;99867.13;;;7.00;49.47
68456;BME280;55437;55.046;38.838;2023-03-15T14:18:17;99870.81;;;6.82;49.76
68456;BME280;55437;55.046;38.838;2023-03-15T14:21:01;99870.97;;;6.71;50.08
68456;BME280;55437;55.046;38.838;2023-03-15T14:23:30;99873.69;;;6.61;50.53
68456;BME280;55437;55.046;38.838;2023-03-15T14:28:33;99863.78;;;6.41;50.93
68456;BME280;55437;55.046;38.838;2023-03-15T14:31:02;99871.69;;;6.24;51.53
68456;BME280;55437;55.046;38.838;2023-03-15T14:33:38;99860.72;;;6.16;51.88
68456;BME280;55437;55.046;38.838;2023-03-15T14:36:08;99860.88;;;6.05;52.04
68456;BME280;55437;55.046;38.838;2023-03-15T14:38:51;99852.38;;;6.05;52.38
68456;BME280;55437;55.046;38.838;2023-03-15T14:43:52;99844.94;;;5.91;52.71